Time;durP1;ratioP1;P1;durP2;ratioP2;P2;SDS_P1;SDS_P2;PMS_P1;PMS_P2;Temp;Humidity;BMP_temperature;BMP_pressure;BME280_temperature;BME280_humidity;BME280_pressure;Samples;Min_cycle;Max_cycle;Signal;HPM_P1;HPM_P2
2022/12/22 03:27:37;;;;;;;4.57;2.17;;;;;;;;;;6166921;28;20629;-88
2022/12/22 03:30:42;;;;;;;4.20;2.10;;;;;;;;;;6165952;28;20302;-89
2022/12/22 03:33:48;;;;;;;7.17;2.00;;;;;;;;;;6167218;29;20320;-88
2022/12/22 03:36:55;;;;;;;4.70;2.10;;;;;;;;;;6167268;28;20496;-89
2022/12/22 03:40:00;;;;;;;2.63;1.90;;;;;;;;;;6150105;29;20518;-89
2022/12/22 03:46:32;;;;;;;3.40;1.80;;;;;;;;;;6167192;28;20478;-89
2022/12/22 03:49:38;;;;;;;3.23;2.20;;;;;;;;;;6167263;29;20278;-89
2022/12/22 03:52:44;;;;;;;3.67;2.03;;;;;;;;;;6171340;28;20293;-86
2022/12/22 03:55:51;;;;;;;5.07;2.07;;;;;;;;;;6179940;28;20259;-88
2022/12/22 03:58:56;;;;;;;5.43;1.97;;;;;;;;;;6165886;29;20276;-89
2022/12/22 04:02:01;;;;;;;1.90;1.73;;;;;;;;;;6157385;28;20301;-88
2022/12/22 04:05:08;;;;;;;2.40;1.87;;;;;;;;;;6175454;28;20287;-90
2022/12/22 04:08:15;;;;;;;2.57;1.70;;;;;;;;;;6204847;28;20366;-87
2022/12/22 04:14:44;;;;;;;2.43;1.60;;;;;;;;;;6184314;28;20579;-89
2022/12/22 04:17:50;;;;;;;2.17;1.73;;;;;;;;;;6148541;28;20299;-87
2022/12/22 04:20:56;;;;;;;4.40;1.50;;;;;;;;;;6187850;28;20275;-89
2022/12/22 04:24:03;;;;;;;2.23;1.40;;;;;;;;;;6189806;28;20300;-89
2022/12/22 04:27:09;;;;;;;4.20;1.67;;;;;;;;;;6190355;28;20296;-88
2022/12/22 04:30:14;;;;;;;1.90;1.80;;;;;;;;;;6190553;28;20274;-89
2022/12/22 04:33:20;;;;;;;2.53;1.47;;;;;;;;;;6204882;28;20301;-87
2022/12/22 04:36:25;;;;;;;5.47;1.77;;;;;;;;;;6181315;28;20282;-89
2022/12/22 04:39:33;;;;;;;1.63;1.53;;;;;;;;;;6167260;28;20313;-87
2022/12/22 04:42:39;;;;;;;2.00;1.57;;;;;;;;;;6167317;28;20298;-88
2022/12/22 04:45:45;;;;;;;1.87;1.70;;;;;;;;;;6167229;28;20276;-88
2022/12/22 04:48:51;;;;;;;1.50;1.40;;;;;;;;;;6168758;28;20301;-87
2022/12/22 04:52:04;;;;;;;4.07;1.70;;;;;;;;;;6189975;28;20263;-86
2022/12/22 04:55:11;;;;;;;1.63;1.57;;;;;;;;;;6179127;29;20365;-86
2022/12/22 04:58:17;;;;;;;1.40;1.40;;;;;;;;;;6173134;28;20304;-88
2022/12/22 05:01:23;;;;;;;1.37;1.30;;;;;;;;;;6167375;28;20275;-88
2022/12/22 05:04:28;;;;;;;2.27;1.83;;;;;;;;;;6170616;28;20362;-90
2022/12/22 05:07:34;;;;;;;2.83;1.70;;;;;;;;;;6180199;28;20251;-89
2022/12/22 05:10:42;;;;;;;1.73;1.63;;;;;;;;;;6190227;28;20278;-88
2022/12/22 05:13:47;;;;;;;2.60;1.90;;;;;;;;;;6188792;28;20302;-89
2022/12/22 05:16:53;;;;;;;1.57;1.57;;;;;;;;;;6204553;28;20274;-89
2022/12/22 05:19:58;;;;;;;1.60;1.50;;;;;;;;;;6190715;28;20303;-89
2022/12/22 05:23:07;;;;;;;1.77;1.67;;;;;;;;;;6190110;28;20294;-89
2022/12/22 05:26:15;;;;;;;2.93;1.70;;;;;;;;;;6204798;28;20288;-89
2022/12/22 05:29:20;;;;;;;5.37;2.00;;;;;;;;;;6203663;28;20297;-90
2022/12/22 05:32:26;;;;;;;1.70;1.60;;;;;;;;;;6171609;28;20464;-89
2022/12/22 05:35:31;;;;;;;1.70;1.70;;;;;;;;;;6193942;28;20279;-87
2022/12/22 05:38:37;;;;;;;1.83;1.73;;;;;;;;;;6199449;28;20296;-89
2022/12/22 05:41:45;;;;;;;3.97;1.77;;;;;;;;;;6189457;28;20276;-88
2022/12/22 05:44:50;;;;;;;1.80;1.80;;;;;;;;;;6188131;28;20369;-89
2022/12/22 05:47:55;;;;;;;4.20;2.10;;;;;;;;;;6175588;28;20295;-89
2022/12/22 05:51:01;;;;;;;2.67;1.73;;;;;;;;;;6193618;28;20277;-88
2022/12/22 05:54:07;;;;;;;2.60;2.40;;;;;;;;;;6176133;28;20484;-88
2022/12/22 05:57:16;;;;;;;2.87;2.10;;;;;;;;;;6193004;28;20273;-89
2022/12/22 06:00:22;;;;;;;2.63;2.17;;;;;;;;;;6193984;28;20544;-90
2022/12/22 06:03:28;;;;;;;4.30;2.10;;;;;;;;;;6193903;28;20305;-90
2022/12/22 06:06:35;;;;;;;2.17;2.07;;;;;;;;;;6197561;28;20274;-88
2022/12/22 06:09:40;;;;;;;4.63;2.17;;;;;;;;;;6193594;28;20307;-89
2022/12/22 06:12:50;;;;;;;2.20;2.10;;;;;;;;;;6194327;28;20294;-92
2022/12/22 06:15:55;;;;;;;3.07;2.30;;;;;;;;;;6194574;28;20291;-89
2022/12/22 06:19:01;;;;;;;2.10;2.00;;;;;;;;;;6221253;28;20262;-87
2022/12/22 06:22:07;;;;;;;4.27;2.10;;;;;;;;;;6183771;28;20278;-88
2022/12/22 06:25:12;;;;;;;2.27;2.13;;;;;;;;;;6192171;28;20277;-89
2022/12/22 06:28:24;;;;;;;4.57;2.13;;;;;;;;;;6210033;28;20295;-90
2022/12/22 06:31:30;;;;;;;2.20;2.20;;;;;;;;;;6195016;28;20269;-90
2022/12/22 06:34:36;;;;;;;2.00;1.90;;;;;;;;;;6194245;28;20324;-90
2022/12/22 06:37:42;;;;;;;2.37;2.20;;;;;;;;;;6193040;28;20375;-88
2022/12/22 06:40:48;;;;;;;3.60;2.23;;;;;;;;;;6195233;28;20389;-88
2022/12/22 06:43:54;;;;;;;2.50;2.30;;;;;;;;;;6195208;28;20605;-89
2022/12/22 06:47:01;;;;;;;2.63;2.00;;;;;;;;;;6193383;28;20274;-89
2022/12/22 06:50:08;;;;;;;2.30;2.10;;;;;;;;;;6208930;28;20458;-91
2022/12/22 06:53:14;;;;;;;2.00;1.90;;;;;;;;;;6193130;28;20297;-89
2022/12/22 06:56:19;;;;;;;3.23;2.40;;;;;;;;;;6209921;28;20293;-89
2022/12/22 06:59:26;;;;;;;2.30;2.30;;;;;;;;;;6193022;28;20298;-89
2022/12/22 07:02:32;;;;;;;3.27;2.50;;;;;;;;;;6203915;28;20254;-90
2022/12/22 07:05:39;;;;;;;2.47;2.33;;;;;;;;;;6218658;28;20238;-87
2022/12/22 07:08:51;;;;;;;2.10;2.00;;;;;;;;;;6196807;28;20481;-85
2022/12/22 07:12:00;;;;;;;3.90;2.40;;;;;;;;;;6177420;28;20569;-87
2022/12/22 07:15:11;;;;;;;2.43;2.33;;;;;;;;;;6169831;28;20292;-87
2022/12/22 07:18:17;;;;;;;2.17;2.07;;;;;;;;;;6167560;28;20300;-87
2022/12/22 07:21:26;;;;;;;2.63;2.33;;;;;;;;;;6168510;29;20286;-87
2022/12/22 07:24:32;;;;;;;2.37;2.27;;;;;;;;;;6165724;28;20297;-88
2022/12/22 07:27:38;;;;;;;2.60;2.40;;;;;;;;;;6165251;28;20294;-87
2022/12/22 07:30:46;;;;;;;5.83;2.33;;;;;;;;;;6178800;28;20245;-86
2022/12/22 07:33:56;;;;;;;2.40;2.30;;;;;;;;;;6156315;28;20301;-86
2022/12/22 07:37:02;;;;;;;4.47;2.53;;;;;;;;;;6182385;28;20295;-86
2022/12/22 07:40:10;;;;;;;5.07;2.13;;;;;;;;;;6149072;29;20291;-89
2022/12/22 07:43:18;;;;;;;3.30;2.00;;;;;;;;;;6135602;29;20289;-90
2022/12/22 07:46:45;;;;;;;3.03;2.30;;;;;;;;;;6151907;29;20278;-88
2022/12/22 07:53:16;;;;;;;2.47;2.27;;;;;;;;;;6167708;28;20304;-90
2022/12/22 07:56:22;;;;;;;2.67;2.40;;;;;;;;;;6171632;28;20467;-88
2022/12/22 07:59:30;;;;;;;1.93;1.77;;;;;;;;;;6150743;28;20304;-89
2022/12/22 08:02:39;;;;;;;2.67;2.00;;;;;;;;;;6181871;28;20302;-89
2022/12/22 08:05:46;;;;;;;2.07;2.00;;;;;;;;;;6151416;29;20577;-89
2022/12/22 08:08:52;;;;;;;2.00;1.90;;;;;;;;;;6181615;28;20302;-89
2022/12/22 08:11:58;;;;;;;2.77;1.93;;;;;;;;;;6190313;28;20266;-90
2022/12/22 08:15:04;;;;;;;7.03;2.13;;;;;;;;;;6207959;28;20299;-89
2022/12/22 08:18:15;;;;;;;2.17;1.87;;;;;;;;;;6189592;28;20300;-89
2022/12/22 08:21:20;;;;;;;2.20;2.10;;;;;;;;;;6207973;28;20270;-89
2022/12/22 08:24:26;;;;;;;3.63;1.97;;;;;;;;;;6192479;28;20315;-89
2022/12/22 08:27:38;;;;;;;2.70;1.90;;;;;;;;;;6201652;28;20235;-88
2022/12/22 08:30:45;;;;;;;2.00;1.90;;;;;;;;;;6197051;28;20241;-89
2022/12/22 08:33:53;;;;;;;3.00;1.83;;;;;;;;;;6190713;28;20298;-89
2022/12/22 08:37:01;;;;;;;2.87;1.70;;;;;;;;;;6191053;28;20295;-89
2022/12/22 08:40:09;;;;;;;3.70;1.80;;;;;;;;;;6189949;28;20456;-88
2022/12/22 08:43:15;;;;;;;3.93;1.90;;;;;;;;;;6203027;28;20290;-87
2022/12/22 08:46:20;;;;;;;2.70;1.70;;;;;;;;;;6196477;28;20365;-88
2022/12/22 08:49:27;;;;;;;3.37;2.20;;;;;;;;;;6173079;28;20299;-89
2022/12/22 08:52:33;;;;;;;3.40;1.90;;;;;;;;;;6189618;28;20308;-88
2022/12/22 08:55:39;;;;;;;2.03;1.83;;;;;;;;;;6190006;28;20297;-89
2022/12/22 08:58:44;;;;;;;2.17;1.57;;;;;;;;;;6190495;28;20294;-88
2022/12/22 09:01:50;;;;;;;1.70;1.50;;;;;;;;;;6189840;28;20285;-90
2022/12/22 09:04:58;;;;;;;4.20;1.87;;;;;;;;;;6188770;28;20304;-90
2022/12/22 09:08:05;;;;;;;1.50;1.50;;;;;;;;;;6188317;28;20302;-89
2022/12/22 09:11:11;;;;;;;2.63;1.60;;;;;;;;;;6165094;29;20320;-89
2022/12/22 09:14:17;;;;;;;1.67;1.57;;;;;;;;;;6164825;29;20299;-87
2022/12/22 09:17:23;;;;;;;3.13;1.70;;;;;;;;;;6166994;28;20314;-87
2022/12/22 09:20:30;;;;;;;3.80;1.70;;;;;;;;;;6165167;28;20268;-88
2022/12/22 09:23:35;;;;;;;1.53;1.50;;;;;;;;;;6165401;29;20310;-87
2022/12/22 09:26:41;;;;;;;3.57;1.60;;;;;;;;;;6166830;29;20278;-88
2022/12/22 09:29:48;;;;;;;1.60;1.60;;;;;;;;;;6169619;29;20292;-87
2022/12/22 09:32:57;;;;;;;1.63;1.53;;;;;;;;;;6165462;29;20300;-88
2022/12/22 09:36:06;;;;;;;4.13;1.80;;;;;;;;;;6164942;29;20280;-87
2022/12/22 09:39:16;;;;;;;2.80;1.50;;;;;;;;;;6163701;29;20303;-88
2022/12/22 09:42:29;;;;;;;4.67;1.60;;;;;;;;;;6164738;29;20296;-88
2022/12/22 09:45:37;;;;;;;3.17;1.80;;;;;;;;;;6149026;29;20280;-89
2022/12/22 09:48:43;;;;;;;3.27;1.47;;;;;;;;;;6164868;29;20300;-89
2022/12/22 09:51:57;;;;;;;1.63;1.53;;;;;;;;;;6155750;28;20253;-88
2022/12/22 09:55:04;;;;;;;2.37;1.60;;;;;;;;;;6179333;28;20248;-88
2022/12/22 09:58:19;;;;;;;2.20;2.10;;;;;;;;;;6155166;29;20288;-91
2022/12/22 10:01:39;;;;;;;4.10;1.73;;;;;;;;;;6164170;28;20437;-88
2022/12/22 10:05:01;;;;;;;1.50;1.40;;;;;;;;;;6163880;29;20300;-88
2022/12/22 10:08:14;;;;;;;2.20;1.67;;;;;;;;;;6149102;29;20292;-88
2022/12/22 10:11:25;;;;;;;3.40;1.80;;;;;;;;;;6180648;28;20460;-89
2022/12/22 10:14:34;;;;;;;3.80;2.07;;;;;;;;;;6192195;28;20291;-89
2022/12/22 10:17:40;;;;;;;4.03;1.90;;;;;;;;;;6192930;28;20294;-88
2022/12/22 10:21:06;;;;;;;4.30;2.13;;;;;;;;;;6175774;28;20263;-89
2022/12/22 10:24:18;;;;;;;2.90;2.30;;;;;;;;;;6190223;28;20290;-90
2022/12/22 10:27:30;;;;;;;9.77;2.83;;;;;;;;;;6189703;28;20302;-91
2022/12/22 10:30:39;;;;;;;3.33;2.20;;;;;;;;;;6189062;28;20274;-88
2022/12/22 10:33:46;;;;;;;7.03;3.10;;;;;;;;;;6191241;28;20306;-91
2022/12/22 10:36:55;;;;;;;4.73;2.63;;;;;;;;;;6194424;28;20561;-90
2022/12/22 10:40:14;;;;;;;4.07;2.20;;;;;;;;;;6191517;28;20294;-90
2022/12/22 10:43:23;;;;;;;6.37;2.23;;;;;;;;;;6160443;28;20297;-89
2022/12/22 10:46:35;;;;;;;3.23;1.90;;;;;;;;;;6193873;28;20292;-91
2022/12/22 10:49:43;;;;;;;2.70;1.87;;;;;;;;;;6191174;28;20302;-87
2022/12/22 10:52:57;;;;;;;2.67;1.70;;;;;;;;;;6189635;28;20293;-86
2022/12/22 10:56:18;;;;;;;2.00;1.90;;;;;;;;;;6190617;28;20277;-86
2022/12/22 10:59:24;;;;;;;5.13;2.40;;;;;;;;;;6190735;28;20310;-88
2022/12/22 11:02:36;;;;;;;2.10;2.00;;;;;;;;;;6175244;28;20303;-87
2022/12/22 11:05:43;;;;;;;6.67;2.60;;;;;;;;;;6196586;28;20262;-85
2022/12/22 11:08:49;;;;;;;5.03;2.10;;;;;;;;;;6189363;28;20294;-87
2022/12/22 11:12:03;;;;;;;3.33;2.07;;;;;;;;;;6192622;28;20274;-87
2022/12/22 11:15:18;;;;;;;5.87;2.20;;;;;;;;;;6182577;28;20282;-85
2022/12/22 11:18:49;;;;;;;5.60;2.33;;;;;;;;;;6178551;28;20310;-87
2022/12/22 11:22:00;;;;;;;3.50;2.37;;;;;;;;;;6202002;28;20237;-86
2022/12/22 11:25:22;;;;;;;6.57;2.40;;;;;;;;;;6192636;28;20275;-87
2022/12/22 11:28:51;;;;;;;4.07;2.13;;;;;;;;;;6192289;28;20309;-87
2022/12/22 11:32:09;;;;;;;2.77;1.90;;;;;;;;;;6206426;28;20282;-83
2022/12/22 11:35:17;;;;;;;3.23;2.20;;;;;;;;;;6204364;28;20279;-83
2022/12/22 11:38:33;;;;;;;5.20;1.90;;;;;;;;;;6177557;28;20303;-80
2022/12/22 11:41:57;;;;;;;4.03;2.00;;;;;;;;;;6168317;28;20281;-91
2022/12/22 11:45:16;;;;;;;3.73;2.00;;;;;;;;;;6165323;28;20294;-87
2022/12/22 11:48:56;;;;;;;3.50;2.10;;;;;;;;;;6166473;28;20314;-87
2022/12/22 11:52:18;;;;;;;2.80;1.80;;;;;;;;;;6151022;29;20279;-88
2022/12/22 11:55:30;;;;;;;6.57;2.50;;;;;;;;;;6166109;28;20283;-90
2022/12/22 11:58:50;;;;;;;2.97;2.50;;;;;;;;;;6174144;28;20303;-87
2022/12/22 12:02:23;;;;;;;5.07;2.70;;;;;;;;;;6190198;28;20286;-88
2022/12/22 12:06:18;;;;;;;2.90;2.23;;;;;;;;;;6204512;28;20271;-89
2022/12/22 12:09:38;;;;;;;6.50;2.50;;;;;;;;;;6147053;28;20311;-88
2022/12/22 12:12:50;;;;;;;3.60;2.50;;;;;;;;;;6165842;28;20300;-87
2022/12/22 12:16:04;;;;;;;2.40;2.07;;;;;;;;;;6166640;28;20451;-88
2022/12/22 12:19:38;;;;;;;6.17;2.80;;;;;;;;;;6176449;28;20299;-84
2022/12/22 12:22:53;;;;;;;5.27;2.37;;;;;;;;;;6168678;28;20293;-86
2022/12/22 12:26:04;;;;;;;2.30;2.10;;;;;;;;;;6136487;29;20285;-88
2022/12/22 12:29:20;;;;;;;5.90;2.50;;;;;;;;;;6164631;28;20334;-88
2022/12/22 12:32:35;;;;;;;3.10;2.23;;;;;;;;;;6148568;28;20642;-88
2022/12/22 12:35:51;;;;;;;3.00;2.40;;;;;;;;;;6165092;29;20274;-87
2022/12/22 12:39:04;;;;;;;7.17;2.40;;;;;;;;;;6152310;28;20309;-88
2022/12/22 12:42:23;;;;;;;3.87;2.37;;;;;;;;;;6148482;28;20283;-86
2022/12/22 12:45:36;;;;;;;4.70;2.87;;;;;;;;;;6176730;28;20230;-88
2022/12/22 12:48:43;;;;;;;2.83;2.20;;;;;;;;;;6164749;28;20307;-89
2022/12/22 12:51:56;;;;;;;4.33;2.40;;;;;;;;;;6164592;29;20280;-88
2022/12/22 12:55:25;;;;;;;4.40;2.47;;;;;;;;;;6147037;28;20309;-89
2022/12/22 12:58:54;;;;;;;4.10;2.57;;;;;;;;;;6172602;28;20309;-89
2022/12/22 13:02:01;;;;;;;5.97;2.57;;;;;;;;;;6151249;28;20273;-86
2022/12/22 13:05:19;;;;;;;3.90;2.47;;;;;;;;;;6138492;29;20282;-88
2022/12/22 13:08:28;;;;;;;3.93;2.33;;;;;;;;;;6164446;28;20298;-88
2022/12/22 13:11:37;;;;;;;8.53;2.70;;;;;;;;;;6181460;28;20279;-88
2022/12/22 13:15:29;;;;;;;4.63;2.60;;;;;;;;;;6187672;28;20266;-87
2022/12/22 13:18:43;;;;;;;2.63;2.43;;;;;;;;;;6171608;28;20233;-87
2022/12/22 13:21:56;;;;;;;8.80;2.70;;;;;;;;;;6171332;28;20296;-86
2022/12/22 13:25:04;;;;;;;3.27;2.70;;;;;;;;;;6172128;28;20299;-90
2022/12/22 13:28:16;;;;;;;4.60;2.50;;;;;;;;;;6197991;28;20304;-92
2022/12/22 13:31:25;;;;;;;5.40;2.67;;;;;;;;;;6199936;28;20224;-90
2022/12/22 13:34:37;;;;;;;4.60;3.07;;;;;;;;;;6197763;28;20305;-89
2022/12/22 13:38:03;;;;;;;5.53;2.97;;;;;;;;;;6188826;28;20429;-90
2022/12/22 13:41:19;;;;;;;3.47;2.97;;;;;;;;;;6175592;28;20298;-93
2022/12/22 13:44:34;;;;;;;4.00;2.90;;;;;;;;;;6190719;28;20319;-92
2022/12/22 13:47:42;;;;;;;5.33;2.93;;;;;;;;;;6173787;28;20297;-93
2022/12/22 13:50:50;;;;;;;4.23;2.53;;;;;;;;;;6191432;28;20285;-91
2022/12/22 13:53:57;;;;;;;6.97;2.87;;;;;;;;;;6192253;28;20303;-91
2022/12/22 13:57:21;;;;;;;5.50;3.00;;;;;;;;;;6180948;28;20560;-91
2022/12/22 14:00:31;;;;;;;5.00;3.07;;;;;;;;;;6189705;28;20406;-91
2022/12/22 14:03:38;;;;;;;6.67;3.30;;;;;;;;;;6156631;28;20299;-92
2022/12/22 14:07:11;;;;;;;3.43;3.13;;;;;;;;;;6191959;28;20562;-87
2022/12/22 14:10:27;;;;;;;6.47;3.43;;;;;;;;;;6206605;28;20256;-88
2022/12/22 14:13:38;;;;;;;6.27;2.93;;;;;;;;;;6202755;28;20291;-91
2022/12/22 14:16:47;;;;;;;5.73;3.23;;;;;;;;;;6197283;28;20278;-90
2022/12/22 14:19:59;;;;;;;2.87;2.67;;;;;;;;;;6196950;28;20304;-91
2022/12/22 14:23:07;;;;;;;3.23;2.93;;;;;;;;;;6179680;28;20308;-92
2022/12/22 14:26:18;;;;;;;2.90;2.70;;;;;;;;;;6194290;28;20301;-93
2022/12/22 14:29:30;;;;;;;7.40;3.30;;;;;;;;;;6198322;28;20327;-92
2022/12/22 14:32:39;;;;;;;4.10;3.20;;;;;;;;;;6212127;28;20291;-90
2022/12/22 14:35:45;;;;;;;5.13;3.03;;;;;;;;;;6179282;28;20275;-89
2022/12/22 14:38:53;;;;;;;6.33;3.50;;;;;;;;;;6196904;28;20302;-91
2022/12/22 14:42:05;;;;;;;8.43;3.20;;;;;;;;;;6196993;28;20287;-89
2022/12/22 14:45:18;;;;;;;4.53;3.23;;;;;;;;;;6206784;28;20256;-89
2022/12/22 14:48:30;;;;;;;10.27;3.40;;;;;;;;;;6192453;28;20299;-90
2022/12/22 14:51:36;;;;;;;5.30;3.37;;;;;;;;;;6194768;28;20273;-91
2022/12/22 14:54:47;;;;;;;4.53;3.57;;;;;;;;;;6195079;28;20280;-91
2022/12/22 14:57:56;;;;;;;4.20;3.50;;;;;;;;;;6195086;28;20275;-91
2022/12/22 15:01:20;;;;;;;6.17;3.70;;;;;;;;;;6196433;28;20287;-92
2022/12/22 15:04:27;;;;;;;5.87;3.57;;;;;;;;;;6193754;28;20481;-91
2022/12/22 15:07:44;;;;;;;4.70;3.60;;;;;;;;;;6194926;28;20279;-90
2022/12/22 15:11:11;;;;;;;9.40;3.77;;;;;;;;;;6211349;28;20263;-91
2022/12/22 15:14:19;;;;;;;4.73;3.53;;;;;;;;;;6195954;28;20264;-92
2022/12/22 15:17:25;;;;;;;8.37;4.03;;;;;;;;;;6205386;28;20231;-90
2022/12/22 15:20:31;;;;;;;4.87;3.53;;;;;;;;;;6205442;28;20289;-88
2022/12/22 15:23:44;;;;;;;8.47;3.70;;;;;;;;;;6206736;28;20227;-89
2022/12/22 15:26:49;;;;;;;4.47;3.83;;;;;;;;;;6206491;28;20223;-88
2022/12/22 15:29:54;;;;;;;10.63;4.23;;;;;;;;;;6205223;28;20238;-87
2022/12/22 15:33:01;;;;;;;5.87;3.87;;;;;;;;;;6216097;28;20339;-89
2022/12/22 15:36:09;;;;;;;6.07;4.17;;;;;;;;;;6206658;28;20239;-88
2022/12/22 15:39:16;;;;;;;5.23;4.07;;;;;;;;;;6199189;28;20276;-89
2022/12/22 15:42:22;;;;;;;4.23;3.57;;;;;;;;;;6210421;28;20614;-90
2022/12/22 15:45:34;;;;;;;5.17;3.90;;;;;;;;;;6194971;28;20270;-91
2022/12/22 15:48:42;;;;;;;4.03;3.73;;;;;;;;;;6194888;28;20312;-90
2022/12/22 15:51:51;;;;;;;6.37;3.83;;;;;;;;;;6194179;28;20328;-90
2022/12/22 15:54:58;;;;;;;4.40;4.10;;;;;;;;;;6199597;28;20261;-89
2022/12/22 15:58:04;;;;;;;6.97;4.77;;;;;;;;;;6202164;28;20488;-89
2022/12/22 16:01:11;;;;;;;9.70;5.27;;;;;;;;;;6193059;28;20284;-87
2022/12/22 16:04:17;;;;;;;5.87;3.87;;;;;;;;;;6192221;28;20306;-89
2022/12/22 16:07:23;;;;;;;4.93;3.93;;;;;;;;;;6192082;28;20285;-88
2022/12/22 16:10:32;;;;;;;4.63;3.90;;;;;;;;;;6191332;28;20263;-91
2022/12/22 16:13:38;;;;;;;11.60;4.40;;;;;;;;;;6193798;28;20271;-90
2022/12/22 16:16:43;;;;;;;7.13;3.93;;;;;;;;;;6216330;28;20261;-89
2022/12/22 16:19:51;;;;;;;6.03;3.60;;;;;;;;;;6221578;28;20263;-88
2022/12/22 16:22:57;;;;;;;6.13;3.73;;;;;;;;;;6221028;28;20291;-91
2022/12/22 16:26:03;;;;;;;6.17;4.37;;;;;;;;;;6205208;28;20231;-82
2022/12/22 16:29:10;;;;;;;3.73;3.37;;;;;;;;;;6208266;28;20541;-83
2022/12/22 16:32:19;;;;;;;9.10;4.10;;;;;;;;;;6189166;28;20274;-83
2022/12/22 16:35:27;;;;;;;8.30;3.47;;;;;;;;;;6189606;28;20276;-82
2022/12/22 16:38:33;;;;;;;4.63;3.70;;;;;;;;;;6189671;28;20456;-82
2022/12/22 16:41:39;;;;;;;3.90;3.60;;;;;;;;;;6189071;28;20444;-82
2022/12/22 16:44:45;;;;;;;8.17;3.93;;;;;;;;;;6189552;28;20277;-87
2022/12/22 16:48:11;;;;;;;4.23;3.83;;;;;;;;;;6192242;28;20274;-83
2022/12/22 16:51:22;;;;;;;7.23;3.83;;;;;;;;;;6199752;28;20294;-83
2022/12/22 16:54:27;;;;;;;5.40;3.77;;;;;;;;;;6202048;28;20234;-83
2022/12/22 16:57:32;;;;;;;7.20;4.10;;;;;;;;;;6202836;28;20230;-84
2022/12/22 17:00:38;;;;;;;7.07;4.13;;;;;;;;;;6204801;28;20224;-84
2022/12/22 17:03:43;;;;;;;7.83;4.10;;;;;;;;;;6204940;28;20297;-85
2022/12/22 17:06:51;;;;;;;9.53;4.37;;;;;;;;;;6205358;28;20220;-83
2022/12/22 17:10:00;;;;;;;9.57;4.47;;;;;;;;;;6220869;28;20209;-85
2022/12/22 17:13:06;;;;;;;10.00;4.00;;;;;;;;;;6203575;28;20232;-85
2022/12/22 17:16:19;;;;;;;9.43;4.97;;;;;;;;;;6198451;28;20314;-84
2022/12/22 17:19:24;;;;;;;12.33;4.83;;;;;;;;;;6198176;28;20271;-84
2022/12/22 17:22:32;;;;;;;17.53;4.63;;;;;;;;;;6198822;28;20295;-85
2022/12/22 17:25:38;;;;;;;6.97;4.60;;;;;;;;;;6199251;28;20344;-83
2022/12/22 17:28:44;;;;;;;5.17;4.27;;;;;;;;;;6198679;28;20274;-84
2022/12/22 17:31:55;;;;;;;11.27;4.60;;;;;;;;;;6199799;28;20274;-85
2022/12/22 17:35:01;;;;;;;11.53;4.53;;;;;;;;;;6199730;28;20266;-82
2022/12/22 17:38:13;;;;;;;4.87;4.43;;;;;;;;;;6201343;28;20235;-83
2022/12/22 17:41:18;;;;;;;6.80;5.20;;;;;;;;;;6199954;28;20232;-82
2022/12/22 17:44:27;;;;;;;9.53;5.00;;;;;;;;;;6206754;28;20279;-84
2022/12/22 17:47:34;;;;;;;5.80;4.60;;;;;;;;;;6207469;28;20231;-79
2022/12/22 17:50:48;;;;;;;19.77;5.60;;;;;;;;;;6205945;28;20248;-80
2022/12/22 17:53:56;;;;;;;11.77;5.30;;;;;;;;;;6202390;28;20239;-81
2022/12/22 17:57:03;;;;;;;13.20;5.70;;;;;;;;;;6191702;28;20310;-81
2022/12/22 18:00:17;;;;;;;17.20;5.53;;;;;;;;;;6192170;28;20464;-81
2022/12/22 18:03:22;;;;;;;14.07;5.73;;;;;;;;;;6193412;28;20301;-80
2022/12/22 18:06:34;;;;;;;7.17;5.50;;;;;;;;;;6193661;28;20279;-81
2022/12/22 18:09:41;;;;;;;13.83;5.80;;;;;;;;;;6192664;28;20275;-83
2022/12/22 18:12:47;;;;;;;17.00;5.80;;;;;;;;;;6192593;28;20298;-81
2022/12/22 18:15:54;;;;;;;8.27;4.93;;;;;;;;;;6192495;28;20278;-80
2022/12/22 18:18:59;;;;;;;15.00;6.03;;;;;;;;;;6197532;28;20268;-79
2022/12/22 18:22:05;;;;;;;11.93;5.13;;;;;;;;;;6200658;28;20290;-82
2022/12/22 18:25:18;;;;;;;7.47;5.07;;;;;;;;;;6192648;28;20272;-80
2022/12/22 18:28:24;;;;;;;11.40;5.70;;;;;;;;;;6192627;28;20446;-82
2022/12/22 18:31:29;;;;;;;12.83;5.97;;;;;;;;;;6192066;28;20457;-81
2022/12/22 18:34:34;;;;;;;15.10;5.67;;;;;;;;;;6191948;28;20279;-80
2022/12/22 18:37:40;;;;;;;15.57;5.60;;;;;;;;;;6191973;28;20264;-81
2022/12/22 18:40:48;;;;;;;12.53;5.27;;;;;;;;;;6192003;28;20271;-83
2022/12/22 18:43:53;;;;;;;10.37;5.63;;;;;;;;;;6191985;28;20287;-84
2022/12/22 18:46:59;;;;;;;8.10;5.10;;;;;;;;;;6193012;28;20280;-85
2022/12/22 18:50:05;;;;;;;15.90;5.47;;;;;;;;;;6191697;28;20569;-82
2022/12/22 18:53:20;;;;;;;13.10;5.30;;;;;;;;;;6190658;28;20383;-82
2022/12/22 18:56:26;;;;;;;12.93;5.57;;;;;;;;;;6206978;28;20281;-87
2022/12/22 18:59:31;;;;;;;11.53;5.50;;;;;;;;;;6191806;28;20268;-83
2022/12/22 19:02:37;;;;;;;9.97;5.17;;;;;;;;;;6192518;28;20307;-85
2022/12/22 19:05:44;;;;;;;11.87;5.63;;;;;;;;;;6193160;28;20271;-83
2022/12/22 19:08:50;;;;;;;12.33;6.27;;;;;;;;;;6190948;28;20281;-87
2022/12/22 19:11:56;;;;;;;14.03;6.10;;;;;;;;;;6190291;28;20267;-84
2022/12/22 19:15:07;;;;;;;7.47;5.30;;;;;;;;;;6191763;28;20276;-83
2022/12/22 19:18:17;;;;;;;11.60;5.37;;;;;;;;;;6194128;28;20275;-82
2022/12/22 19:21:30;;;;;;;16.43;6.73;;;;;;;;;;6191157;28;20276;-83
2022/12/22 19:24:35;;;;;;;11.93;6.07;;;;;;;;;;6191150;28;20291;-80
2022/12/22 19:27:42;;;;;;;9.47;6.10;;;;;;;;;;6190987;28;20264;-82
2022/12/22 19:30:50;;;;;;;16.13;6.73;;;;;;;;;;6195381;28;20262;-85
2022/12/22 19:33:56;;;;;;;16.30;6.43;;;;;;;;;;6203060;28;20306;-82
2022/12/22 19:37:01;;;;;;;13.30;6.43;;;;;;;;;;6190704;28;20283;-82
2022/12/22 19:40:08;;;;;;;14.77;6.50;;;;;;;;;;6190916;28;20280;-83
2022/12/22 19:43:15;;;;;;;17.33;6.43;;;;;;;;;;6190823;28;20298;-80
2022/12/22 19:46:35;;;;;;;13.37;6.67;;;;;;;;;;6191381;28;20275;-86
2022/12/22 19:49:41;;;;;;;13.13;7.13;;;;;;;;;;6195931;28;20258;-88
2022/12/22 19:52:48;;;;;;;11.53;6.53;;;;;;;;;;6216549;28;20268;-88
2022/12/22 19:55:55;;;;;;;12.93;5.97;;;;;;;;;;6196317;28;20453;-87
2022/12/22 19:59:02;;;;;;;13.50;6.10;;;;;;;;;;6192441;28;20269;-89
2022/12/22 20:02:28;;;;;;;14.03;5.53;;;;;;;;;;6245321;22;20308;-88
2022/12/22 20:05:46;;;;;;;12.27;6.23;;;;;;;;;;6277974;28;20241;-84
2022/12/22 20:08:52;;;;;;;12.10;6.43;;;;;;;;;;6277039;28;20229;-87
2022/12/22 20:11:59;;;;;;;16.83;6.63;;;;;;;;;;6261005;28;20222;-87
2022/12/22 20:15:30;;;;;;;10.67;6.00;;;;;;;;;;6276593;28;20225;-87
2022/12/22 20:18:40;;;;;;;13.53;6.60;;;;;;;;;;6267397;28;20269;-88
2022/12/22 20:21:54;;;;;;;16.23;6.00;;;;;;;;;;6249674;28;20272;-89
2022/12/22 20:25:03;;;;;;;14.83;6.60;;;;;;;;;;6250577;28;20335;-88
2022/12/22 20:28:19;;;;;;;18.93;6.53;;;;;;;;;;6254486;22;20303;-83
2022/12/22 20:31:26;;;;;;;14.60;6.40;;;;;;;;;;6238298;28;20274;-82
2022/12/22 20:34:31;;;;;;;13.80;6.33;;;;;;;;;;6237188;28;20288;-82
2022/12/22 20:37:37;;;;;;;10.63;5.93;;;;;;;;;;6239003;28;20269;-82
2022/12/22 20:40:43;;;;;;;13.17;6.53;;;;;;;;;;6238540;28;20270;-83
2022/12/22 20:43:49;;;;;;;13.73;6.40;;;;;;;;;;6247256;28;20283;-82
2022/12/22 20:46:55;;;;;;;10.17;7.03;;;;;;;;;;6241529;28;20266;-82
2022/12/22 20:50:01;;;;;;;10.50;6.37;;;;;;;;;;6238013;28;20275;-82
2022/12/22 20:53:06;;;;;;;12.07;6.23;;;;;;;;;;6239196;28;20292;-81
2022/12/22 20:56:19;;;;;;;14.07;6.07;;;;;;;;;;6237356;28;20271;-82
2022/12/22 20:59:25;;;;;;;16.07;6.90;;;;;;;;;;6236521;28;20454;-82
2022/12/22 21:02:31;;;;;;;13.97;6.20;;;;;;;;;;6237452;28;20294;-83
2022/12/22 21:05:37;;;;;;;12.10;5.70;;;;;;;;;;6237703;28;20285;-81
2022/12/22 21:08:43;;;;;;;12.93;6.10;;;;;;;;;;6236973;28;20281;-82
2022/12/22 21:11:48;;;;;;;16.67;5.33;;;;;;;;;;6237088;28;20274;-82
2022/12/22 21:14:53;;;;;;;11.57;5.73;;;;;;;;;;6237298;28;20480;-82
2022/12/22 21:18:00;;;;;;;11.97;6.30;;;;;;;;;;6237102;28;20273;-82
2022/12/22 21:21:05;;;;;;;10.87;6.07;;;;;;;;;;6237423;28;20277;-82
2022/12/22 21:24:11;;;;;;;10.40;5.50;;;;;;;;;;6252313;28;20289;-82
2022/12/22 21:27:18;;;;;;;11.13;6.30;;;;;;;;;;6236482;28;20305;-82
2022/12/22 21:30:26;;;;;;;16.67;6.80;;;;;;;;;;6236688;28;20282;-82
2022/12/22 21:33:33;;;;;;;14.30;6.27;;;;;;;;;;6237049;28;20428;-82
2022/12/22 21:36:38;;;;;;;15.53;6.53;;;;;;;;;;6237029;28;20460;-82
2022/12/22 21:39:44;;;;;;;12.00;6.40;;;;;;;;;;6237476;28;20279;-82
2022/12/22 21:42:50;;;;;;;11.37;6.47;;;;;;;;;;6237191;28;20269;-81
2022/12/22 21:45:55;;;;;;;13.33;6.40;;;;;;;;;;6238011;28;20301;-81
2022/12/22 21:49:02;;;;;;;12.53;6.37;;;;;;;;;;6236081;28;20262;-82
2022/12/22 21:52:07;;;;;;;14.77;6.70;;;;;;;;;;6237034;28;20265;-83
2022/12/22 21:55:13;;;;;;;9.17;5.70;;;;;;;;;;6243799;28;20260;-82
2022/12/22 21:58:18;;;;;;;12.67;6.20;;;;;;;;;;6244724;28;20270;-83
2022/12/22 22:01:23;;;;;;;14.13;5.97;;;;;;;;;;6236345;28;20265;-82
2022/12/22 22:04:30;;;;;;;8.90;5.33;;;;;;;;;;6236272;28;20310;-82
2022/12/22 22:07:35;;;;;;;11.70;6.00;;;;;;;;;;6236028;28;20262;-82
2022/12/22 22:10:42;;;;;;;13.87;5.50;;;;;;;;;;6226666;28;20267;-82
2022/12/22 22:13:47;;;;;;;11.03;5.67;;;;;;;;;;6210385;28;20295;-82
2022/12/22 22:16:52;;;;;;;12.77;6.37;;;;;;;;;;6212323;28;20271;-82
2022/12/22 22:19:59;;;;;;;11.17;5.93;;;;;;;;;;6211008;28;20271;-83
2022/12/22 22:23:04;;;;;;;12.70;5.83;;;;;;;;;;6212111;28;20275;-82
2022/12/22 22:26:11;;;;;;;12.23;6.67;;;;;;;;;;6211590;28;20310;-82
2022/12/22 22:29:17;;;;;;;10.50;5.77;;;;;;;;;;6215577;28;20283;-83